Terminal Aerodrome Forecast
Issued by NWS

Home | Current Version | Previous Version | Text Only | Print | Product List | Glossary On
Versions: 1 2 3 4 5 6 7 8 9 10 11 12 13 14 15 16 17
000
FTUS44 KHGX 170526
TAFUTS
TAF
KUTS 170526Z 1706/1806 17005KT P6SM SKC
     FM171100 17008KT P6SM BKN025
     FM171400 20011KT P6SM SCT025
     FM172000 19009KT P6SM VCSH SCT035
     FM180200 17007KT P6SM SCT250=

USA.gov is the U.S. government's official web portal to all federal, state and local government web resources and services.